Time;durP1;ratioP1;P1;durP2;ratioP2;P2;SDS_P1;SDS_P2;PMS_P1;PMS_P2;Temp;Humidity;BMP_temperature;BMP_pressure;BME280_temperature;BME280_humidity;BME280_pressure;Samples;Min_cycle;Max_cycle;Signal;HPM_P1;HPM_P2
2023/12/24 00:00:09;;;;;;;3.63;2.40;;;9.50;92.20;;;;;;5069177;28;20105;-72
2023/12/24 00:02:35;;;;;;;1.38;1.30;;;9.50;92.00;;;;;;5102077;28;20079;-72
2023/12/24 00:05:01;;;;;;;0.10;0.10;;;9.50;92.00;;;;;;5069184;28;20048;-71
2023/12/24 00:07:27;;;;;;;3.17;0.70;;;9.50;92.00;;;;;;5088088;28;20044;-72
2023/12/24 00:09:53;;;;;;;0.00;0.00;;;9.50;91.90;;;;;;5087801;28;20127;-72
2023/12/24 00:12:18;;;;;;;0.00;0.00;;;9.50;92.00;;;;;;5087588;28;20134;-72
2023/12/24 00:14:44;;;;;;;0.00;0.00;;;9.40;92.20;;;;;;5086959;28;20111;-72
2023/12/24 00:17:10;;;;;;;0.00;0.00;;;9.50;92.10;;;;;;5087536;28;20061;-72
2023/12/24 00:19:35;;;;;;;0.00;0.00;;;9.50;92.20;;;;;;5086198;28;20040;-72
2023/12/24 00:22:01;;;;;;;0.35;0.35;;;9.50;92.10;;;;;;5076043;28;20090;-72
2023/12/24 00:24:26;;;;;;;0.00;0.00;;;9.50;92.00;;;;;;5033044;28;20052;-72
2023/12/24 00:26:53;;;;;;;0.38;0.38;;;9.50;92.20;;;;;;5083816;28;20495;-72
2023/12/24 00:29:19;;;;;;;0.00;0.00;;;9.50;92.10;;;;;;5067025;28;20150;-72
2023/12/24 00:31:45;;;;;;;0.30;0.30;;;9.50;91.80;;;;;;5068192;28;20525;-71
2023/12/24 00:34:10;;;;;;;0.00;0.00;;;9.50;92.00;;;;;;5070374;28;20167;-72
2023/12/24 00:36:36;;;;;;;0.10;0.10;;;9.50;92.00;;;;;;5083009;28;20051;-72
2023/12/24 00:39:02;;;;;;;0.00;0.00;;;9.50;92.10;;;;;;5066891;28;20109;-72
2023/12/24 00:41:30;;;;;;;0.00;0.00;;;9.50;92.00;;;;;;5067478;28;20052;-73
2023/12/24 00:43:56;;;;;;;0.00;0.00;;;9.40;92.20;;;;;;5068344;28;20044;-72
2023/12/24 00:46:22;;;;;;;0.10;0.10;;;9.50;92.30;;;;;;5086632;28;20126;-72
2023/12/24 00:48:47;;;;;;;0.08;0.08;;;9.50;92.20;;;;;;5087497;28;20131;-72
2023/12/24 00:51:13;;;;;;;0.00;0.00;;;9.50;92.40;;;;;;5086702;28;20036;-72
2023/12/24 00:53:39;;;;;;;0.95;0.95;;;9.40;92.40;;;;;;5068711;28;20521;-72
2023/12/24 00:56:04;;;;;;;0.00;0.00;;;9.50;92.50;;;;;;5087318;28;20043;-73
2023/12/24 00:58:30;;;;;;;0.90;0.85;;;9.40;92.40;;;;;;5084597;28;20040;-72
2023/12/24 01:00:56;;;;;;;0.00;0.00;;;9.40;92.70;;;;;;5082561;28;20085;-72
2023/12/24 01:03:22;;;;;;;0.00;0.00;;;9.40;92.80;;;;;;5087307;28;20044;-73
2023/12/24 01:05:47;;;;;;;0.00;0.00;;;9.40;92.90;;;;;;5086904;28;20773;-72
2023/12/24 01:08:14;;;;;;;11.13;1.48;;;9.40;92.90;;;;;;5086114;28;20044;-72
2023/12/24 01:10:39;;;;;;;0.00;0.00;;;9.40;92.90;;;;;;5086611;28;20048;-72
2023/12/24 01:13:07;;;;;;;0.10;0.10;;;9.40;92.90;;;;;;5085425;28;20028;-72
2023/12/24 01:15:33;;;;;;;1.55;1.33;;;9.40;93.00;;;;;;5085333;28;20036;-72
2023/12/24 01:17:58;;;;;;;0.00;0.00;;;9.40;93.10;;;;;;5086866;28;20040;-72
2023/12/24 01:20:24;;;;;;;0.73;0.25;;;9.40;93.30;;;;;;5070983;28;20050;-73
2023/12/24 01:22:50;;;;;;;1.30;0.75;;;9.40;93.10;;;;;;5077320;28;20041;-72
2023/12/24 01:25:15;;;;;;;0.00;0.00;;;9.30;93.20;;;;;;5064016;28;20148;-72
2023/12/24 01:27:41;;;;;;;0.88;0.80;;;9.30;93.40;;;;;;5066505;28;20105;-72
2023/12/24 01:30:08;;;;;;;0.03;0.03;;;9.40;93.40;;;;;;5055761;28;20060;-72
2023/12/24 01:32:34;;;;;;;0.00;0.00;;;9.30;93.40;;;;;;5063065;28;20461;-72
2023/12/24 01:34:59;;;;;;;0.00;0.00;;;9.30;93.50;;;;;;5065645;28;20037;-72
2023/12/24 01:37:25;;;;;;;1.25;0.50;;;9.30;93.50;;;;;;5066126;28;20406;-72
2023/12/24 01:39:51;;;;;;;0.00;0.00;;;9.40;93.40;;;;;;5064805;28;20469;-72
2023/12/24 01:42:17;;;;;;;0.00;0.00;;;9.40;93.40;;;;;;5081343;28;20048;-72
2023/12/24 01:44:43;;;;;;;0.00;0.00;;;9.40;93.30;;;;;;5065935;28;20095;-72
2023/12/24 01:47:08;;;;;;;2.50;1.65;;;9.40;93.20;;;;;;5065258;28;20052;-73
2023/12/24 01:49:35;;;;;;;0.00;0.00;;;9.40;93.40;;;;;;5097510;28;20407;-72
2023/12/24 01:52:01;;;;;;;0.00;0.00;;;9.40;93.40;;;;;;5059870;28;20052;-72
2023/12/24 01:54:28;;;;;;;0.22;0.22;;;9.40;93.40;;;;;;5064849;28;20053;-72
2023/12/24 01:56:54;;;;;;;0.00;0.00;;;9.40;93.30;;;;;;5064060;28;20037;-72
2023/12/24 01:59:20;;;;;;;0.00;0.00;;;9.40;93.50;;;;;;5063069;28;20051;-72
2023/12/24 02:01:46;;;;;;;0.10;0.10;;;9.40;93.50;;;;;;5065062;28;20127;-72
2023/12/24 02:04:14;;;;;;;0.00;0.00;;;9.40;93.40;;;;;;5098515;28;20048;-72
2023/12/24 02:06:40;;;;;;;0.57;0.57;;;9.30;93.50;;;;;;5066074;28;20114;-72
2023/12/24 02:09:05;;;;;;;0.00;0.00;;;9.30;93.50;;;;;;5066123;28;20491;-72
2023/12/24 02:11:31;;;;;;;1.83;1.73;;;9.50;93.50;;;;;;5064047;28;20040;-72
2023/12/24 02:13:57;;;;;;;0.00;0.00;;;9.50;93.30;;;;;;5097521;28;20177;-72
2023/12/24 02:16:24;;;;;;;0.00;0.00;;;9.50;93.10;;;;;;5065357;28;20574;-73
2023/12/24 02:18:54;;;;;;;0.28;0.28;;;9.50;93.40;;;;;;5065121;28;20048;-72
2023/12/24 02:21:19;;;;;;;0.95;0.75;;;9.50;93.40;;;;;;5063276;28;20056;-72
2023/12/24 02:23:45;;;;;;;0.00;0.00;;;9.40;93.50;;;;;;5065577;28;20045;-72
2023/12/24 02:26:26;;;;;;;0.00;0.00;;;9.40;93.50;;;;;;5066917;28;20049;-72
2023/12/24 02:29:02;;;;;;;0.63;0.63;;;9.50;93.60;;;;;;5058128;28;20048;-71
2023/12/24 02:31:31;;;;;;;0.00;0.00;;;9.60;93.60;;;;;;5071433;28;20059;-72
2023/12/24 02:34:01;;;;;;;0.00;0.00;;;9.50;93.40;;;;;;5088768;28;20036;-72
2023/12/24 02:36:27;;;;;;;0.00;0.00;;;9.50;93.60;;;;;;5082655;28;20052;-73
2023/12/24 02:38:52;;;;;;;0.00;0.00;;;9.60;93.50;;;;;;5089074;28;20051;-72
2023/12/24 02:41:18;;;;;;;0.00;0.00;;;9.60;93.50;;;;;;5088977;28;20130;-72
2023/12/24 02:43:44;;;;;;;0.00;0.00;;;9.70;93.40;;;;;;5087869;28;20036;-71
2023/12/24 02:46:09;;;;;;;0.00;0.00;;;9.70;93.40;;;;;;5088281;28;20162;-72
2023/12/24 02:48:35;;;;;;;0.00;0.00;;;9.60;93.60;;;;;;5088864;28;20040;-73
2023/12/24 02:51:01;;;;;;;0.10;0.10;;;9.60;93.70;;;;;;5088593;28;20040;-73
2023/12/24 02:53:26;;;;;;;0.00;0.00;;;9.60;93.90;;;;;;5088879;28;20043;-73
2023/12/24 02:55:52;;;;;;;0.00;0.00;;;9.60;93.90;;;;;;5070234;28;20051;-73
2023/12/24 02:58:18;;;;;;;0.08;0.08;;;9.60;94.00;;;;;;5069858;28;20052;-73
2023/12/24 03:00:43;;;;;;;0.00;0.00;;;9.60;94.00;;;;;;5071082;28;20083;-72
2023/12/24 03:03:09;;;;;;;0.00;0.00;;;9.60;94.10;;;;;;5065594;28;20036;-73
2023/12/24 03:05:35;;;;;;;0.00;0.00;;;9.60;94.20;;;;;;5087023;28;20087;-72
2023/12/24 03:08:00;;;;;;;0.00;0.00;;;9.60;94.30;;;;;;5088374;28;20048;-72
2023/12/24 03:10:26;;;;;;;0.00;0.00;;;9.60;94.20;;;;;;5088056;28;20051;-73
2023/12/24 03:12:52;;;;;;;0.00;0.00;;;9.60;94.30;;;;;;5070630;28;20738;-73
2023/12/24 03:15:18;;;;;;;0.00;0.00;;;9.60;94.40;;;;;;5088184;28;20119;-72
2023/12/24 03:17:43;;;;;;;0.00;0.00;;;9.70;94.30;;;;;;5104869;28;20135;-73
2023/12/24 03:20:09;;;;;;;0.00;0.00;;;9.70;94.20;;;;;;5088181;28;20040;-73
2023/12/24 03:22:35;;;;;;;0.00;0.00;;;9.60;94.30;;;;;;5087665;28;20036;-72
2023/12/24 03:25:01;;;;;;;0.00;0.00;;;9.60;94.40;;;;;;5088320;28;20043;-72
2023/12/24 03:27:26;;;;;;;0.00;0.00;;;9.70;94.40;;;;;;5053432;28;20044;-72
2023/12/24 03:29:53;;;;;;;0.00;0.00;;;9.70;94.50;;;;;;5085002;28;20143;-72
2023/12/24 03:32:21;;;;;;;0.30;0.30;;;9.60;94.40;;;;;;5069218;28;20059;-72
2023/12/24 03:34:46;;;;;;;0.00;0.00;;;9.70;94.40;;;;;;5087912;28;20052;-72
2023/12/24 03:37:12;;;;;;;0.00;0.00;;;9.70;94.60;;;;;;5104012;28;20760;-72
2023/12/24 03:39:37;;;;;;;0.00;0.00;;;9.70;94.50;;;;;;5068890;28;20051;-72
2023/12/24 03:42:03;;;;;;;0.00;0.00;;;9.70;94.50;;;;;;5087953;28;20040;-72
2023/12/24 03:44:29;;;;;;;0.00;0.00;;;9.70;94.50;;;;;;5069912;28;20678;-72
2023/12/24 03:46:55;;;;;;;0.10;0.10;;;9.70;94.50;;;;;;5103794;28;20457;-72
2023/12/24 03:49:20;;;;;;;0.00;0.00;;;9.70;94.60;;;;;;5103771;28;20040;-72
2023/12/24 03:51:47;;;;;;;0.00;0.00;;;9.80;94.50;;;;;;5085515;28;20078;-72
2023/12/24 03:54:13;;;;;;;0.00;0.00;;;9.70;94.70;;;;;;5069593;28;20510;-71
2023/12/24 03:56:39;;;;;;;0.00;0.00;;;9.70;94.70;;;;;;5103669;28;20059;-72
2023/12/24 03:59:05;;;;;;;0.00;0.00;;;9.60;94.70;;;;;;5069435;28;20043;-71
2023/12/24 04:01:30;;;;;;;0.00;0.00;;;9.70;94.70;;;;;;5086695;28;20043;-72
2023/12/24 04:03:56;;;;;;;0.00;0.00;;;9.70;94.70;;;;;;5069034;28;20040;-72
2023/12/24 04:06:22;;;;;;;0.00;0.00;;;9.70;94.80;;;;;;5087895;28;20123;-71
2023/12/24 04:08:47;;;;;;;0.00;0.00;;;9.70;94.70;;;;;;5087377;28;20047;-72
2023/12/24 04:11:15;;;;;;;0.00;0.00;;;9.70;94.60;;;;;;5087651;28;20047;-72
2023/12/24 04:13:41;;;;;;;0.00;0.00;;;9.70;94.70;;;;;;5088055;28;20048;-72
2023/12/24 04:16:07;;;;;;;0.00;0.00;;;9.70;94.70;;;;;;5087579;28;20044;-72
2023/12/24 04:18:33;;;;;;;0.00;0.00;;;9.70;94.80;;;;;;5082006;28;20050;-72
2023/12/24 04:20:59;;;;;;;0.20;0.20;;;9.80;94.80;;;;;;5083885;28;20051;-72
2023/12/24 04:23:25;;;;;;;0.00;0.00;;;9.70;94.70;;;;;;5087134;28;20491;-72
2023/12/24 04:25:50;;;;;;;0.30;0.30;;;9.80;94.80;;;;;;5087376;28;20047;-72
2023/12/24 04:28:16;;;;;;;0.00;0.00;;;9.80;94.70;;;;;;5086806;28;20052;-73
2023/12/24 04:30:42;;;;;;;0.00;0.00;;;9.90;94.70;;;;;;5086732;28;20151;-73
2023/12/24 04:33:07;;;;;;;0.63;0.63;;;9.90;94.70;;;;;;5086687;28;20048;-72
2023/12/24 04:35:33;;;;;;;0.00;0.00;;;9.90;94.70;;;;;;5066920;28;20037;-72
2023/12/24 04:38:00;;;;;;;1.25;1.20;;;9.90;94.70;;;;;;5085175;28;20105;-72
2023/12/24 04:40:25;;;;;;;0.20;0.20;;;9.90;94.70;;;;;;5086614;28;20678;-71
2023/12/24 04:42:51;;;;;;;0.55;0.55;;;9.90;94.70;;;;;;5086237;28;20056;-72
2023/12/24 04:45:17;;;;;;;0.00;0.00;;;9.90;94.70;;;;;;5062601;28;20135;-71
2023/12/24 04:47:43;;;;;;;0.00;0.00;;;10.00;94.80;;;;;;5067483;28;20147;-72
2023/12/24 04:50:09;;;;;;;0.00;0.00;;;9.90;94.60;;;;;;5051448;28;20040;-71
2023/12/24 04:52:38;;;;;;;1.83;1.70;;;9.90;94.70;;;;;;5086618;28;20105;-72
2023/12/24 04:55:07;;;;;;;0.30;0.30;;;9.90;94.60;;;;;;5086077;28;20052;-71
2023/12/24 04:57:33;;;;;;;0.00;0.00;;;9.90;94.60;;;;;;5073001;28;20163;-72
2023/12/24 04:59:58;;;;;;;0.00;0.00;;;10.00;94.70;;;;;;5086248;28;20974;-71
2023/12/24 05:02:24;;;;;;;1.13;1.13;;;10.10;94.60;;;;;;5086472;28;20067;-71
2023/12/24 05:04:51;;;;;;;0.30;0.30;;;10.00;94.50;;;;;;5085062;28;20048;-72
2023/12/24 05:07:17;;;;;;;0.03;0.03;;;10.10;94.40;;;;;;5085836;28;20033;-72
2023/12/24 05:09:43;;;;;;;0.17;0.17;;;10.10;94.40;;;;;;5086537;28;20043;-72
2023/12/24 05:12:09;;;;;;;1.25;1.23;;;10.10;94.40;;;;;;5085980;28;20064;-72
2023/12/24 05:14:35;;;;;;;0.00;0.00;;;10.10;94.40;;;;;;5103014;28;20125;-72
2023/12/24 05:17:02;;;;;;;0.00;0.00;;;10.10;94.40;;;;;;5085896;28;20055;-71
2023/12/24 05:19:28;;;;;;;0.45;0.45;;;10.10;94.30;;;;;;5083795;28;20114;-72
2023/12/24 05:21:54;;;;;;;0.00;0.00;;;10.10;94.30;;;;;;5086783;28;20046;-72
2023/12/24 05:24:22;;;;;;;0.10;0.10;;;10.20;94.00;;;;;;5086362;28;20556;-73
2023/12/24 05:26:47;;;;;;;0.70;0.70;;;10.20;94.00;;;;;;5086851;28;20090;-72
2023/12/24 05:29:13;;;;;;;0.00;0.00;;;10.30;94.00;;;;;;5068902;28;20088;-72
2023/12/24 05:31:40;;;;;;;0.00;0.00;;;10.30;93.80;;;;;;5099798;28;20059;-72
2023/12/24 05:34:07;;;;;;;0.00;0.00;;;10.30;93.70;;;;;;5085060;28;20052;-72
2023/12/24 05:36:34;;;;;;;0.00;0.00;;;10.40;93.60;;;;;;5097392;28;20040;-72
2023/12/24 05:39:00;;;;;;;0.00;0.00;;;10.30;93.60;;;;;;5085190;28;20056;-72
2023/12/24 05:41:27;;;;;;;0.00;0.00;;;10.30;93.60;;;;;;5068925;28;20051;-71
2023/12/24 05:43:52;;;;;;;0.00;0.00;;;10.40;93.60;;;;;;5082669;28;20063;-72
2023/12/24 05:46:20;;;;;;;0.15;0.15;;;10.40;93.50;;;;;;5082150;28;20040;-72
2023/12/24 05:48:45;;;;;;;0.63;0.63;;;10.40;93.50;;;;;;5086429;28;20109;-72
2023/12/24 05:51:11;;;;;;;0.00;0.00;;;10.40;93.50;;;;;;5085404;28;20450;-71
2023/12/24 05:53:37;;;;;;;0.00;0.00;;;10.40;93.40;;;;;;5086459;28;20044;-72
2023/12/24 05:56:03;;;;;;;0.00;0.00;;;10.40;93.40;;;;;;5101449;28;20056;-71
2023/12/24 05:58:29;;;;;;;0.00;0.00;;;10.40;93.50;;;;;;5086451;28;20060;-72
2023/12/24 06:00:55;;;;;;;0.10;0.10;;;10.50;93.50;;;;;;5085415;28;20147;-72
2023/12/24 06:03:24;;;;;;;2.30;0.98;;;10.40;93.40;;;;;;5088388;28;20052;-71
2023/12/24 06:05:50;;;;;;;0.22;0.22;;;10.40;93.30;;;;;;5088868;28;20157;-72
2023/12/24 06:08:16;;;;;;;0.90;0.90;;;10.50;93.40;;;;;;5088931;28;21011;-72
2023/12/24 06:10:43;;;;;;;0.00;0.00;;;10.40;93.30;;;;;;5086728;28;20048;-72
2023/12/24 06:13:09;;;;;;;0.00;0.00;;;10.50;93.40;;;;;;5089079;28;20145;-72
2023/12/24 06:15:34;;;;;;;0.00;0.00;;;10.50;93.30;;;;;;5084986;28;20768;-72
2023/12/24 06:18:01;;;;;;;0.22;0.22;;;10.50;93.50;;;;;;5080727;28;20093;-72
2023/12/24 06:20:29;;;;;;;0.00;0.00;;;10.50;93.40;;;;;;5088671;28;20721;-72
2023/12/24 06:22:55;;;;;;;0.00;0.00;;;10.50;93.50;;;;;;5087940;28;20091;-72
2023/12/24 06:25:21;;;;;;;0.10;0.10;;;10.60;93.50;;;;;;5089113;28;20816;-72
2023/12/24 06:27:47;;;;;;;1.45;1.27;;;10.60;93.50;;;;;;5089017;28;20486;-72
2023/12/24 06:30:13;;;;;;;0.00;0.00;;;10.60;93.40;;;;;;5085088;28;20533;-73
2023/12/24 06:32:41;;;;;;;0.00;0.00;;;10.60;93.40;;;;;;5086213;28;20051;-71
2023/12/24 06:35:09;;;;;;;0.03;0.03;;;10.50;93.50;;;;;;5087676;28;20139;-72
2023/12/24 06:37:35;;;;;;;0.00;0.00;;;10.50;93.50;;;;;;5088570;28;20529;-72
2023/12/24 06:40:00;;;;;;;0.00;0.00;;;10.50;93.60;;;;;;5088356;28;20071;-72
2023/12/24 06:42:26;;;;;;;3.42;1.23;;;10.60;93.70;;;;;;5089125;28;20514;-72
2023/12/24 06:44:56;;;;;;;0.08;0.08;;;10.60;93.60;;;;;;5087147;28;20518;-72
2023/12/24 06:47:21;;;;;;;0.05;0.05;;;10.60;93.40;;;;;;5087954;28;20144;-72
2023/12/24 06:49:47;;;;;;;0.00;0.00;;;10.60;93.30;;;;;;5088777;28;20380;-72
2023/12/24 06:52:13;;;;;;;0.03;0.03;;;10.60;93.50;;;;;;5085918;28;20508;-72
2023/12/24 06:54:39;;;;;;;0.00;0.00;;;10.60;93.40;;;;;;5088845;28;20047;-71
2023/12/24 06:57:08;;;;;;;0.10;0.10;;;10.60;93.30;;;;;;5088648;28;20052;-71
2023/12/24 06:59:34;;;;;;;0.00;0.00;;;10.70;93.20;;;;;;5084847;28;20041;-72
2023/12/24 07:02:00;;;;;;;0.00;0.00;;;10.80;93.00;;;;;;5074291;28;20089;-72
2023/12/24 07:04:26;;;;;;;0.00;0.00;;;10.70;93.00;;;;;;5088609;28;20043;-72
2023/12/24 07:06:52;;;;;;;0.00;0.00;;;10.80;92.90;;;;;;5087478;28;20118;-71
2023/12/24 07:09:17;;;;;;;0.00;0.00;;;10.80;92.70;;;;;;5088042;28;20578;-71
2023/12/24 07:11:43;;;;;;;0.00;0.00;;;10.80;92.70;;;;;;5088006;28;20660;-70
2023/12/24 07:14:09;;;;;;;0.00;0.00;;;10.80;92.90;;;;;;5087913;28;20033;-71
2023/12/24 07:16:34;;;;;;;0.00;0.00;;;10.80;92.70;;;;;;5088775;28;20072;-72
2023/12/24 07:19:05;;;;;;;0.00;0.00;;;10.80;92.60;;;;;;5052690;28;20057;-71
2023/12/24 07:21:31;;;;;;;0.00;0.00;;;10.70;92.70;;;;;;5086683;28;20040;-71
2023/12/24 07:23:57;;;;;;;0.00;0.00;;;10.90;92.70;;;;;;5086764;28;20116;-71
2023/12/24 07:26:22;;;;;;;0.98;0.98;;;10.80;92.70;;;;;;5084806;28;20131;-71
2023/12/24 07:28:48;;;;;;;0.00;0.00;;;10.80;92.60;;;;;;5096477;28;20140;-71
2023/12/24 07:31:14;;;;;;;4.65;2.45;;;10.80;92.50;;;;;;5082260;28;20121;-71
2023/12/24 07:33:43;;;;;;;0.00;0.00;;;11.00;92.40;;;;;;5086084;28;20139;-71
2023/12/24 07:36:09;;;;;;;0.00;0.00;;;10.90;92.60;;;;;;5048969;28;20131;-71
2023/12/24 07:38:35;;;;;;;0.00;0.00;;;11.00;92.60;;;;;;5085102;28;20159;-71
2023/12/24 07:41:00;;;;;;;0.00;0.00;;;10.90;92.40;;;;;;5089692;28;20090;-71
2023/12/24 07:43:27;;;;;;;0.00;0.00;;;10.90;92.70;;;;;;5085538;28;20052;-71
2023/12/24 07:45:56;;;;;;;0.00;0.00;;;10.80;92.70;;;;;;5080381;28;20040;-71
2023/12/24 07:48:24;;;;;;;0.00;0.00;;;10.90;92.90;;;;;;5103018;28;20087;-71
2023/12/24 07:50:50;;;;;;;0.00;0.00;;;10.80;92.90;;;;;;5086628;28;20093;-72
2023/12/24 07:53:15;;;;;;;0.10;0.10;;;10.90;92.80;;;;;;5085110;28;20051;-71
2023/12/24 07:55:41;;;;;;;0.08;0.08;;;10.90;92.70;;;;;;5089106;28;20044;-72
2023/12/24 07:58:07;;;;;;;1.17;0.55;;;10.90;92.80;;;;;;5085514;28;20056;-72
2023/12/24 08:00:33;;;;;;;0.00;0.00;;;10.80;92.60;;;;;;5085985;28;20085;-72
2023/12/24 08:02:58;;;;;;;0.00;0.00;;;11.00;92.80;;;;;;5081578;28;20043;-72
2023/12/24 08:05:33;;;;;;;0.00;0.00;;;11.00;92.60;;;;;;5084184;28;20044;-70
2023/12/24 08:07:59;;;;;;;0.30;0.30;;;11.10;92.40;;;;;;5085479;28;20040;-71
2023/12/24 08:10:24;;;;;;;0.00;0.00;;;11.00;92.40;;;;;;5085185;28;20159;-72
2023/12/24 08:12:50;;;;;;;0.10;0.10;;;11.00;92.50;;;;;;5085450;28;20055;-71
2023/12/24 08:15:17;;;;;;;7.55;1.65;;;10.90;92.60;;;;;;5086535;28;20044;-69
2023/12/24 08:17:43;;;;;;;0.00;0.00;;;11.00;92.40;;;;;;5062376;28;20044;-72
2023/12/24 08:20:09;;;;;;;0.00;0.00;;;11.00;92.50;;;;;;5051078;28;20419;-71
2023/12/24 08:22:37;;;;;;;0.00;0.00;;;11.10;92.50;;;;;;5081672;28;20040;-71
2023/12/24 08:25:02;;;;;;;0.00;0.00;;;11.00;92.50;;;;;;5062697;28;20048;-71
2023/12/24 08:27:28;;;;;;;0.00;0.00;;;11.10;92.50;;;;;;5084161;28;20063;-72
2023/12/24 08:29:55;;;;;;;0.00;0.00;;;11.10;92.40;;;;;;5077459;28;20051;-71
2023/12/24 08:32:21;;;;;;;0.00;0.00;;;11.10;92.40;;;;;;5084738;28;20048;-71
2023/12/24 08:34:47;;;;;;;0.00;0.00;;;11.10;92.40;;;;;;5067310;28;20102;-71
2023/12/24 08:37:13;;;;;;;0.00;0.00;;;11.10;92.40;;;;;;5083123;28;20036;-71
2023/12/24 08:39:38;;;;;;;0.00;0.00;;;11.10;92.30;;;;;;5085244;28;20055;-71
2023/12/24 08:42:04;;;;;;;0.00;0.00;;;11.20;92.20;;;;;;5086943;28;20071;-71
2023/12/24 08:44:30;;;;;;;1.45;1.23;;;11.20;92.30;;;;;;5078226;28;20117;-71
2023/12/24 08:46:56;;;;;;;0.00;0.00;;;11.20;92.20;;;;;;5081719;28;20047;-72
2023/12/24 08:49:23;;;;;;;0.00;0.00;;;11.20;92.20;;;;;;5086066;28;20544;-71
2023/12/24 08:51:48;;;;;;;0.00;0.00;;;11.20;92.30;;;;;;5084374;28;20042;-71
2023/12/24 08:54:14;;;;;;;0.00;0.00;;;11.30;92.10;;;;;;5086283;28;20052;-71
2023/12/24 08:56:40;;;;;;;0.00;0.00;;;11.30;92.10;;;;;;5084626;28;20040;-70
2023/12/24 08:59:07;;;;;;;0.35;0.35;;;11.30;92.20;;;;;;5085344;28;20098;-71
2023/12/24 09:01:33;;;;;;;0.00;0.00;;;11.30;92.20;;;;;;5074384;28;20043;-71
2023/12/24 09:04:00;;;;;;;0.00;0.00;;;11.30;92.20;;;;;;5085883;28;20048;-71
2023/12/24 09:06:26;;;;;;;0.00;0.00;;;11.30;92.20;;;;;;5083326;28;20048;-72
2023/12/24 09:08:52;;;;;;;0.85;0.85;;;11.40;92.00;;;;;;5068325;28;20062;-71
2023/12/24 09:11:18;;;;;;;0.00;0.00;;;11.40;92.10;;;;;;5085552;28;20039;-72
2023/12/24 09:13:44;;;;;;;0.10;0.10;;;11.40;92.00;;;;;;5086335;28;20048;-72
2023/12/24 09:16:09;;;;;;;0.00;0.00;;;11.50;92.10;;;;;;5078834;28;20044;-71
2023/12/24 09:18:38;;;;;;;0.38;0.38;;;11.40;92.00;;;;;;5065800;28;20052;-72
2023/12/24 09:21:05;;;;;;;0.10;0.10;;;11.50;91.90;;;;;;5082450;28;20565;-70
2023/12/24 09:23:31;;;;;;;0.00;0.00;;;11.50;92.20;;;;;;5061831;28;20070;-70
2023/12/24 09:25:56;;;;;;;0.55;0.43;;;11.50;91.90;;;;;;5084387;28;20410;-70
2023/12/24 09:28:22;;;;;;;0.00;0.00;;;11.50;92.00;;;;;;5084398;28;20554;-70
2023/12/24 09:30:48;;;;;;;0.00;0.00;;;11.40;92.00;;;;;;5080738;28;20127;-70
2023/12/24 09:33:14;;;;;;;0.00;0.00;;;11.40;92.00;;;;;;5085858;28;20088;-70
2023/12/24 09:35:43;;;;;;;0.00;0.00;;;11.40;92.00;;;;;;5089125;28;20054;-70
2023/12/24 09:38:12;;;;;;;0.00;0.00;;;11.50;92.00;;;;;;5088841;28;20048;-71
2023/12/24 09:40:38;;;;;;;0.03;0.03;;;11.40;92.00;;;;;;5088811;28;20036;-70
2023/12/24 09:43:04;;;;;;;0.00;0.00;;;11.40;92.30;;;;;;5089688;28;20046;-70
2023/12/24 09:45:32;;;;;;;0.68;0.68;;;11.40;92.20;;;;;;5090190;28;20063;-72
2023/12/24 09:47:58;;;;;;;0.00;0.00;;;11.40;92.30;;;;;;5088303;28;20048;-72
2023/12/24 09:50:23;;;;;;;0.00;0.00;;;11.50;92.20;;;;;;5085907;28;20132;-72
2023/12/24 09:52:49;;;;;;;0.00;0.00;;;11.50;92.30;;;;;;5089891;28;20044;-72
2023/12/24 09:55:15;;;;;;;0.00;0.00;;;11.60;92.30;;;;;;5104567;28;20342;-71
2023/12/24 09:57:40;;;;;;;0.60;0.55;;;11.50;92.30;;;;;;5089325;28;20043;-72
2023/12/24 10:00:09;;;;;;;0.00;0.00;;;11.60;92.30;;;;;;5086790;28;20048;-72
2023/12/24 10:02:34;;;;;;;0.00;0.00;;;11.60;92.30;;;;;;5080869;28;20036;-72
2023/12/24 10:05:03;;;;;;;0.20;0.20;;;11.60;92.20;;;;;;5085742;28;20048;-72
2023/12/24 10:07:38;;;;;;;0.10;0.10;;;11.60;92.10;;;;;;5075088;28;20048;-72
2023/12/24 10:10:07;;;;;;;0.00;0.00;;;11.60;92.10;;;;;;5085958;28;20594;-72
2023/12/24 10:12:33;;;;;;;0.00;0.00;;;11.60;92.00;;;;;;5088646;28;20059;-71
2023/12/24 10:14:59;;;;;;;0.00;0.00;;;11.60;92.00;;;;;;5087460;28;20048;-72
2023/12/24 10:17:35;;;;;;;0.35;0.35;;;11.70;91.80;;;;;;5070185;28;20040;-74
2023/12/24 10:20:03;;;;;;;0.20;0.20;;;11.70;91.70;;;;;;5087274;28;20797;-73
2023/12/24 10:22:29;;;;;;;0.00;0.00;;;11.70;91.70;;;;;;5067263;28;20044;-73
2023/12/24 10:25:02;;;;;;;0.10;0.10;;;11.70;91.70;;;;;;5084986;28;20104;-73
2023/12/24 10:27:28;;;;;;;3.53;2.63;;;11.70;91.70;;;;;;5066030;28;20048;-72
2023/12/24 10:29:55;;;;;;;0.10;0.10;;;11.70;91.80;;;;;;5088851;28;20044;-72
2023/12/24 10:32:24;;;;;;;0.00;0.00;;;11.70;91.90;;;;;;5088752;28;20052;-72
2023/12/24 10:34:59;;;;;;;0.45;0.45;;;11.80;91.90;;;;;;5087659;28;20054;-72
2023/12/24 10:37:29;;;;;;;0.08;0.08;;;11.70;91.50;;;;;;5088276;28;20066;-72
2023/12/24 10:40:09;;;;;;;0.10;0.10;;;11.80;91.60;;;;;;5089158;28;20089;-72
2023/12/24 10:42:39;;;;;;;0.85;0.85;;;11.80;91.70;;;;;;5068068;28;20067;-72
2023/12/24 10:45:06;;;;;;;0.15;0.15;;;11.80;91.70;;;;;;5086082;28;20044;-72
2023/12/24 10:47:32;;;;;;;0.00;0.00;;;11.70;91.80;;;;;;5087973;28;20056;-73
2023/12/24 10:49:57;;;;;;;0.00;0.00;;;11.70;92.00;;;;;;5087243;28;20055;-72
2023/12/24 10:52:23;;;;;;;0.00;0.00;;;11.60;92.40;;;;;;5083488;28;20786;-73
2023/12/24 10:54:51;;;;;;;0.70;0.70;;;11.60;92.60;;;;;;5089089;28;20056;-73
2023/12/24 10:57:42;;;;;;;0.00;0.00;;;11.60;92.50;;;;;;5089097;28;20051;-73
2023/12/24 11:00:16;;;;;;;0.25;0.25;;;11.60;92.50;;;;;;5079004;28;20051;-73
2023/12/24 11:02:49;;;;;;;0.03;0.03;;;11.60;92.50;;;;;;5087125;28;20036;-72
2023/12/24 11:05:36;;;;;;;0.00;0.00;;;11.70;92.50;;;;;;5088513;28;20080;-72
2023/12/24 11:08:02;;;;;;;0.00;0.00;;;11.60;92.60;;;;;;5088023;28;20048;-73
2023/12/24 11:10:42;;;;;;;0.43;0.43;;;11.60;92.50;;;;;;5087354;28;20044;-73
2023/12/24 11:13:10;;;;;;;0.00;0.00;;;11.70;92.50;;;;;;5086262;28;20105;-72
2023/12/24 11:15:42;;;;;;;0.00;0.00;;;11.70;92.50;;;;;;5088586;28;20051;-71
2023/12/24 11:18:09;;;;;;;0.00;0.00;;;11.70;92.40;;;;;;5066353;28;20182;-71
2023/12/24 11:20:40;;;;;;;0.08;0.08;;;11.80;92.40;;;;;;5082701;28;20063;-71
2023/12/24 11:23:06;;;;;;;0.73;0.73;;;11.70;92.30;;;;;;5076695;28;20058;-72
2023/12/24 11:25:35;;;;;;;0.00;0.00;;;11.70;92.40;;;;;;5084637;28;20036;-71
2023/12/24 11:28:01;;;;;;;0.05;0.05;;;11.90;92.30;;;;;;5083005;28;20145;-72
2023/12/24 11:30:27;;;;;;;0.15;0.15;;;11.90;92.30;;;;;;5069024;28;20099;-71
2023/12/24 11:32:52;;;;;;;0.00;0.00;;;11.80;92.30;;;;;;5093389;28;20059;-71
2023/12/24 11:35:52;;;;;;;0.00;0.00;;;12.00;92.30;;;;;;5089796;28;20055;-72
2023/12/24 11:38:33;;;;;;;0.00;0.00;;;11.80;92.10;;;;;;5075548;28;20102;-72
2023/12/24 11:41:15;;;;;;;0.50;0.50;;;11.90;92.30;;;;;;5081687;28;20048;-72
2023/12/24 11:44:02;;;;;;;0.00;0.00;;;11.90;92.20;;;;;;5085125;28;20060;-72
2023/12/24 11:46:30;;;;;;;0.05;0.05;;;11.80;92.30;;;;;;5080751;28;20063;-72
2023/12/24 11:49:01;;;;;;;0.20;0.20;;;11.90;92.40;;;;;;5084796;28;20056;-71
2023/12/24 11:51:27;;;;;;;0.00;0.00;;;11.90;92.40;;;;;;5087136;28;20044;-71
2023/12/24 11:54:03;;;;;;;0.00;0.00;;;11.90;92.30;;;;;;5075459;28;20056;-71
2023/12/24 11:56:30;;;;;;;0.10;0.10;;;11.90;92.30;;;;;;5078134;28;20856;-72
2023/12/24 11:58:58;;;;;;;0.00;0.00;;;11.90;92.20;;;;;;5057445;28;20798;-71
2023/12/24 12:01:29;;;;;;;2.60;1.40;;;11.90;92.30;;;;;;5064443;28;20561;-72
2023/12/24 12:04:00;;;;;;;0.30;0.30;;;11.90;92.30;;;;;;5048857;28;20715;-71
2023/12/24 12:06:30;;;;;;;0.28;0.28;;;11.90;92.50;;;;;;5079272;28;20038;-72
2023/12/24 12:08:58;;;;;;;0.17;0.17;;;12.00;92.30;;;;;;5084404;28;20044;-71
2023/12/24 12:11:24;;;;;;;0.00;0.00;;;11.90;92.30;;;;;;5083970;28;20048;-70
2023/12/24 12:13:50;;;;;;;0.00;0.00;;;11.90;92.40;;;;;;5086301;28;20050;-69
2023/12/24 12:16:15;;;;;;;0.00;0.00;;;11.90;92.40;;;;;;5083890;28;20367;-71
2023/12/24 12:18:42;;;;;;;0.63;0.63;;;12.00;92.30;;;;;;5068469;28;20138;-70
2023/12/24 12:21:10;;;;;;;2.28;2.05;;;12.00;92.30;;;;;;5083075;28;20051;-75
2023/12/24 12:23:39;;;;;;;1.35;1.35;;;11.90;92.20;;;;;;5061851;28;20048;-72
2023/12/24 12:26:10;;;;;;;0.30;0.30;;;12.00;92.20;;;;;;5070796;28;20044;-71
2023/12/24 12:28:36;;;;;;;0.00;0.00;;;12.00;92.10;;;;;;5081325;28;20040;-71
2023/12/24 12:31:02;;;;;;;0.00;0.00;;;12.10;92.20;;;;;;5076362;28;20101;-71
2023/12/24 12:33:28;;;;;;;0.30;0.30;;;12.00;92.00;;;;;;5086815;28;20115;-71
2023/12/24 12:35:55;;;;;;;0.00;0.00;;;12.10;92.10;;;;;;5086260;28;20654;-71
2023/12/24 12:38:22;;;;;;;0.00;0.00;;;12.10;92.00;;;;;;5037738;28;20054;-71
2023/12/24 12:40:49;;;;;;;0.03;0.03;;;12.10;91.80;;;;;;5086913;28;20040;-71
2023/12/24 12:43:16;;;;;;;0.00;0.00;;;12.10;91.90;;;;;;5081647;28;20082;-71
2023/12/24 12:45:42;;;;;;;0.20;0.20;;;12.10;92.00;;;;;;5093738;28;20173;-71
2023/12/24 12:48:09;;;;;;;0.08;0.08;;;12.10;92.00;;;;;;5085175;28;20565;-71